createdAt,value
2018-12-13T00:02:01.688Z,27.30
2018-12-13T00:04:31.409Z,31.02
2018-12-13T00:07:02.639Z,35.78
2018-12-13T00:09:32.027Z,32.45
2018-12-13T00:12:01.512Z,31.35
2018-12-13T00:14:31.224Z,29.98
2018-12-13T00:25:57.502Z,30.05
2018-12-13T00:28:26.600Z,26.90
2018-12-13T00:30:56.244Z,38.70
2018-12-13T00:33:25.560Z,40.45
2018-12-13T00:35:54.582Z,34.65
2018-12-13T00:38:24.491Z,33.92
2018-12-13T00:40:53.613Z,35.88
2018-12-13T00:43:22.749Z,38.38
2018-12-13T00:45:51.816Z,39.73
2018-12-13T00:48:20.896Z,30.25
2018-12-13T00:50:50.042Z,35.05
2018-12-13T00:53:19.665Z,36.00
2018-12-13T00:55:48.755Z,39.90
2018-12-13T00:58:17.815Z,34.08
2018-12-13T01:00:46.854Z,38.63
2018-12-13T01:03:15.968Z,36.28
2018-12-13T01:05:45.057Z,38.67
2018-12-13T01:08:14.166Z,31.73
2018-12-13T01:10:43.750Z,42.08
2018-12-13T01:13:13.135Z,42.03
2018-12-13T01:15:42.232Z,35.85
2018-12-13T01:18:11.326Z,40.25
2018-12-13T01:20:41.675Z,32.05
2018-12-13T01:23:10.875Z,37.05
2018-12-13T01:25:39.974Z,29.75
2018-12-13T01:28:09.053Z,33.25
2018-12-13T01:30:38.132Z,33.63
2018-12-13T01:33:07.221Z,35.88
2018-12-13T01:35:36.247Z,30.17
2018-12-13T01:38:05.476Z,39.05
2018-12-13T01:40:34.898Z,38.42
2018-12-13T01:43:04.800Z,37.58
2018-12-13T01:45:34.501Z,40.03
2018-12-13T01:48:03.930Z,38.20
2018-12-13T01:50:33.256Z,37.23
2018-12-13T01:53:02.901Z,34.43
2018-12-13T01:55:31.989Z,35.88
2018-12-13T01:58:01.402Z,35.10
2018-12-13T02:00:30.513Z,36.95
2018-12-13T02:02:59.583Z,29.27
2018-12-13T02:05:28.621Z,39.08
2018-12-13T02:07:57.718Z,38.35
2018-12-13T02:10:26.849Z,29.20
2018-12-13T02:12:55.902Z,29.80
2018-12-13T02:15:25.029Z,29.60
2018-12-13T02:17:54.120Z,35.68
2018-12-13T02:20:23.184Z,38.75
2018-12-13T02:22:52.539Z,39.78
2018-12-13T02:25:22.229Z,34.50
2018-12-13T02:27:51.581Z,28.60
2018-12-13T02:30:21.204Z,34.83
2018-12-13T02:32:50.222Z,34.27
2018-12-13T02:35:19.692Z,35.10
2018-12-13T02:37:48.762Z,37.93
2018-12-13T02:40:18.146Z,36.93
2018-12-13T02:42:47.249Z,41.90
2018-12-13T02:45:16.333Z,34.27
2018-12-13T02:47:46.891Z,36.45
2018-12-13T02:50:15.958Z,37.80
2018-12-13T02:52:45.006Z,37.53
2018-12-13T02:55:14.035Z,34.30
2018-12-13T02:57:43.542Z,39.08
2018-12-13T03:00:12.566Z,41.83
2018-12-13T03:02:42.055Z,49.10
2018-12-13T03:05:11.779Z,44.00
2018-12-13T03:07:40.883Z,43.08
2018-12-13T03:10:09.899Z,42.15
2018-12-13T03:12:39.068Z,38.23
2018-12-13T03:15:08.169Z,51.13
2018-12-13T03:17:37.578Z,49.60
2018-12-13T03:20:06.660Z,44.83
2018-12-13T03:22:35.721Z,47.67
2018-12-13T03:25:05.399Z,52.03
2018-12-13T03:27:35.341Z,46.30
2018-12-13T03:30:05.679Z,52.40
2018-12-13T03:32:34.777Z,44.30
2018-12-13T03:35:04.235Z,47.13
2018-12-13T03:37:33.293Z,48.50
2018-12-13T03:40:02.311Z,51.85
2018-12-13T03:42:31.742Z,46.60
2018-12-13T03:45:00.818Z,47.90
2018-12-13T03:47:29.897Z,46.63
2018-12-13T03:49:58.997Z,47.38
2018-12-13T03:52:28.486Z,61.68
2018-12-13T03:54:57.613Z,45.17
2018-12-13T03:57:26.671Z,57.08
2018-12-13T03:59:56.444Z,48.50
2018-12-13T04:02:25.564Z,59.10
2018-12-13T04:04:54.609Z,58.87
2018-12-13T04:07:27.735Z,55.92
2018-12-13T04:09:55.285Z,52.67
2018-12-13T04:12:24.340Z,51.83
2018-12-13T04:14:53.416Z,49.27
2018-12-13T04:17:22.476Z,56.98
2018-12-13T04:19:51.541Z,56.60
2018-12-13T04:22:21.045Z,52.85
2018-12-13T04:24:55.202Z,58.50
2018-12-13T04:27:24.230Z,49.73
2018-12-13T04:29:53.278Z,46.08
2018-12-13T04:32:22.384Z,49.75
2018-12-13T04:34:51.439Z,44.33
2018-12-13T04:37:20.934Z,52.10
2018-12-13T04:39:49.952Z,47.38
2018-12-13T04:42:19.034Z,59.67
2018-12-13T04:44:48.154Z,48.23
2018-12-13T04:47:17.191Z,52.45
2018-12-13T04:49:46.628Z,52.60
2018-12-13T04:52:15.684Z,55.55
2018-12-13T04:54:44.770Z,52.13
2018-12-13T04:57:14.553Z,53.48
2018-12-13T04:59:43.631Z,58.45
2018-12-13T05:02:13.072Z,46.83
2018-12-13T05:04:42.128Z,45.50
2018-12-13T05:07:11.209Z,51.25
2018-12-13T05:09:40.952Z,50.48
2018-12-13T05:12:10.054Z,44.10
2018-12-13T05:14:39.168Z,50.90
2018-12-13T05:17:08.255Z,44.25
2018-12-13T05:19:37.328Z,48.05
2018-12-13T05:22:06.376Z,43.02
2018-12-13T05:24:35.427Z,49.55
2018-12-13T05:27:04.520Z,44.77
2018-12-13T05:29:33.608Z,50.60
2018-12-13T05:32:03.181Z,43.52
2018-12-13T05:34:32.194Z,41.60
2018-12-13T05:37:01.318Z,42.45
2018-12-13T05:39:30.914Z,44.73
2018-12-13T05:41:59.966Z,41.50
2018-12-13T05:44:29.067Z,40.45
2018-12-13T05:46:59.967Z,44.27
2018-12-13T05:49:29.236Z,46.25
2018-12-13T05:51:58.707Z,47.90
2018-12-13T05:54:27.816Z,44.35
2018-12-13T05:56:57.254Z,39.70
2018-12-13T05:59:26.355Z,48.75
2018-12-13T06:01:55.437Z,44.45
2018-12-13T06:04:25.086Z,36.70
2018-12-13T06:06:54.124Z,45.25
2018-12-13T06:09:23.372Z,35.13
2018-12-13T06:11:53.273Z,46.77
2018-12-13T06:14:22.377Z,45.50
2018-12-13T06:16:52.303Z,37.73
2018-12-13T06:19:26.682Z,36.75
2018-12-13T06:21:52.835Z,42.10
2018-12-13T06:24:21.933Z,41.25
2018-12-13T06:26:51.250Z,39.45
2018-12-13T06:29:20.313Z,38.20
2018-12-13T06:31:49.829Z,37.05
2018-12-13T06:34:18.877Z,36.65
2018-12-13T06:36:48.109Z,41.10
2018-12-13T06:39:17.206Z,36.93
2018-12-13T06:41:46.279Z,29.85
2018-12-13T06:44:15.393Z,35.60
2018-12-13T06:46:44.842Z,44.00
2018-12-13T06:49:13.940Z,41.15
2018-12-13T06:51:43.194Z,37.78
2018-12-13T06:54:12.585Z,38.35
2018-12-13T06:56:42.040Z,35.50
2018-12-13T06:59:11.509Z,40.10
2018-12-13T07:01:40.571Z,35.05
2018-12-13T07:04:09.948Z,39.03
2018-12-13T07:06:39.045Z,33.53
2018-12-13T07:09:08.623Z,37.98
2018-12-13T07:11:38.121Z,44.18
2018-12-13T07:14:07.164Z,46.37
2018-12-13T07:16:36.631Z,39.92
2018-12-13T07:19:06.090Z,48.20
2018-12-13T07:21:35.115Z,43.15
2018-12-13T07:24:04.221Z,46.23
2018-12-13T07:29:34.199Z,42.98
2018-12-13T07:32:03.352Z,46.37
2018-12-13T07:34:32.428Z,47.58
2018-12-13T07:37:01.775Z,55.30
2018-12-13T07:39:30.815Z,57.65
2018-12-13T07:41:59.931Z,53.60
2018-12-13T07:44:29.000Z,42.30
2018-12-13T07:46:58.027Z,42.35
2018-12-13T07:49:27.069Z,44.03
2018-12-13T07:51:56.817Z,62.40
2018-12-13T07:54:25.851Z,51.53
2018-12-13T07:56:55.346Z,42.93
2018-12-13T07:59:24.424Z,42.38
2018-12-13T08:01:54.255Z,44.77
2018-12-13T08:04:23.730Z,44.98
2018-12-13T08:06:53.192Z,45.55
2018-12-13T08:09:22.305Z,37.98
2018-12-13T08:11:52.427Z,46.60
2018-12-13T08:14:22.347Z,44.98
2018-12-13T08:16:52.134Z,39.30
2018-12-13T08:19:21.204Z,39.80
2018-12-13T08:21:50.251Z,36.35
2018-12-13T08:24:19.290Z,36.15
2018-12-13T08:26:48.336Z,41.80
2018-12-13T08:29:17.411Z,34.10
2018-12-13T08:31:46.454Z,37.60
2018-12-13T08:34:15.500Z,39.25
2018-12-13T08:36:44.943Z,41.37
2018-12-13T08:39:14.002Z,48.13
2018-12-13T08:41:43.063Z,39.55
2018-12-13T08:44:12.109Z,39.45
2018-12-13T08:46:41.207Z,37.63
2018-12-13T08:49:10.650Z,37.35
2018-12-13T08:51:39.687Z,44.40
2018-12-13T08:54:08.723Z,44.73
2018-12-13T08:56:37.782Z,37.40
2018-12-13T08:59:06.829Z,35.88
2018-12-13T09:01:36.031Z,38.73
2018-12-13T09:04:06.960Z,32.48
2018-12-13T09:06:36.607Z,32.03
2018-12-13T09:09:07.391Z,32.30
2018-12-13T09:11:36.432Z,30.60
2018-12-13T09:14:05.496Z,34.00
2018-12-13T09:16:35.090Z,28.30
2018-12-13T09:19:04.166Z,30.52
2018-12-13T09:21:33.299Z,36.80
2018-12-13T09:24:03.229Z,37.63
2018-12-13T09:26:32.683Z,38.40
2018-12-13T09:29:01.715Z,37.48
2018-12-13T09:31:30.766Z,38.42
2018-12-13T09:33:59.861Z,38.80
2018-12-13T09:36:28.917Z,31.10
2018-12-13T09:38:58.003Z,26.52
2018-12-13T09:41:28.355Z,28.50
2018-12-13T09:43:57.406Z,34.27
2018-12-13T09:46:27.179Z,31.45
2018-12-13T09:48:57.549Z,30.85
2018-12-13T09:51:26.595Z,36.33
2018-12-13T09:53:56.062Z,26.93
2018-12-13T09:56:25.502Z,33.35
2018-12-13T09:58:54.607Z,31.87
2018-12-13T10:01:23.651Z,29.02
2018-12-13T10:03:53.470Z,28.45
2018-12-13T10:06:22.922Z,26.82
2018-12-13T10:08:51.995Z,31.95
2018-12-13T10:11:21.043Z,26.90
2018-12-13T10:13:50.114Z,32.10
2018-12-13T10:16:19.145Z,32.42
2018-12-13T10:18:48.187Z,38.30
2018-12-13T10:21:17.711Z,34.73
2018-12-13T10:23:46.753Z,26.42
2018-12-13T10:26:15.832Z,32.38
2018-12-13T10:28:45.175Z,31.87
2018-12-13T10:31:14.215Z,39.98
2018-12-13T10:33:43.298Z,35.88
2018-12-13T10:36:12.343Z,38.80
2018-12-13T10:38:41.384Z,33.92
2018-12-13T10:41:10.850Z,32.65
2018-12-13T10:43:39.978Z,30.95
2018-12-13T10:46:09.039Z,38.58
2018-12-13T10:48:38.083Z,42.75
2018-12-13T10:51:07.172Z,47.43
2018-12-13T10:53:37.006Z,35.58
2018-12-13T10:56:06.075Z,31.42
2018-12-13T10:58:35.514Z,28.85
2018-12-13T11:01:10.587Z,30.85
2018-12-13T11:03:39.626Z,29.55
2018-12-13T11:06:09.067Z,28.35
2018-12-13T11:08:38.146Z,31.68
2018-12-13T11:11:07.586Z,29.98
2018-12-13T11:13:36.626Z,34.35
2018-12-13T11:16:05.670Z,38.30
2018-12-13T11:18:34.710Z,43.95
2018-12-13T11:21:03.849Z,26.68
2018-12-13T11:23:32.888Z,36.90
2018-12-13T11:26:01.943Z,28.12
2018-12-13T11:32:00.947Z,39.98
2018-12-13T11:34:30.343Z,39.38
2018-12-13T11:36:59.391Z,40.35
2018-12-13T11:39:28.432Z,38.58
2018-12-13T11:41:57.507Z,40.88
2018-12-13T11:44:26.570Z,41.88
2018-12-13T11:46:56.252Z,36.68
2018-12-13T11:49:25.354Z,46.85
2018-12-13T11:51:54.415Z,34.95
2018-12-13T11:54:25.943Z,40.78
2018-12-13T11:56:55.004Z,44.23
2018-12-13T11:59:24.047Z,46.10
2018-12-13T12:01:53.378Z,43.35
2018-12-13T12:04:22.423Z,41.70
2018-12-13T12:06:51.771Z,40.40
2018-12-13T12:09:20.809Z,36.08
2018-12-13T12:11:50.359Z,41.00
2018-12-13T12:14:19.446Z,40.48
2018-12-13T12:16:49.092Z,43.25
2018-12-13T12:19:18.139Z,40.20
2018-12-13T12:21:47.350Z,42.20
2018-12-13T12:24:16.758Z,44.50
2018-12-13T12:26:46.186Z,49.70
2018-12-13T12:29:15.663Z,44.38
2018-12-13T12:31:44.701Z,48.48
2018-12-13T12:34:14.542Z,49.20
2018-12-13T12:36:44.002Z,47.50
2018-12-13T12:39:18.399Z,42.85
2018-12-13T12:41:44.147Z,52.70
2018-12-13T12:44:13.589Z,50.03
2018-12-13T12:46:43.686Z,54.93
2018-12-13T12:49:12.877Z,48.78
2018-12-13T12:51:42.074Z,52.55
2018-12-13T12:54:11.130Z,44.48
2018-12-13T12:56:40.252Z,46.10
2018-12-13T12:59:09.654Z,49.15
2018-12-13T13:01:40.155Z,47.40
2018-12-13T13:04:09.226Z,41.20
2018-12-13T13:06:38.307Z,43.15
2018-12-13T13:09:08.579Z,45.23
2018-12-13T13:11:37.739Z,41.58
2018-12-13T13:14:06.780Z,46.33
2018-12-13T13:16:35.838Z,44.15
2018-12-13T13:19:04.878Z,38.20
2018-12-13T13:21:33.982Z,37.17
2018-12-13T13:24:03.022Z,39.50
2018-12-13T13:26:32.093Z,41.02
2018-12-13T13:29:01.129Z,38.98
2018-12-13T13:31:30.171Z,35.73
2018-12-13T13:33:59.251Z,36.73
2018-12-13T13:36:28.295Z,34.13
2018-12-13T13:38:57.387Z,37.08
2018-12-13T13:41:27.210Z,32.50
2018-12-13T13:43:56.276Z,28.00
2018-12-13T13:46:25.790Z,32.75
2018-12-13T13:48:55.275Z,25.82
2018-12-13T13:51:24.389Z,25.43
2018-12-13T13:53:54.031Z,24.23
2018-12-13T13:56:23.086Z,32.38
2018-12-13T13:58:52.720Z,32.48
2018-12-13T14:01:21.810Z,31.30
2018-12-13T14:03:50.859Z,32.40
2018-12-13T14:06:19.895Z,29.12
2018-12-13T14:08:49.288Z,31.17
2018-12-13T14:11:18.333Z,34.73
2018-12-13T14:13:47.791Z,28.35
2018-12-13T14:16:16.830Z,39.07
2018-12-13T14:18:45.890Z,31.02
2018-12-13T14:21:14.934Z,27.77
2018-12-13T14:23:44.039Z,32.00
2018-12-13T14:26:13.090Z,34.45
2018-12-13T14:28:42.139Z,34.67
2018-12-13T14:31:11.202Z,39.65
2018-12-13T14:33:40.639Z,38.75
2018-12-13T14:36:10.102Z,37.23
2018-12-13T14:38:39.150Z,37.28
2018-12-13T14:41:08.243Z,33.15
2018-12-13T14:43:37.298Z,32.58
2018-12-13T14:46:06.363Z,33.78
2018-12-13T14:48:35.408Z,31.02
2018-12-13T14:51:04.450Z,34.18
2018-12-13T14:53:33.500Z,52.20
2018-12-13T14:56:03.094Z,58.58
2018-12-13T14:58:32.212Z,40.75
2018-12-13T15:01:01.251Z,32.15
2018-12-13T15:03:30.351Z,35.75
2018-12-13T15:05:59.398Z,30.12
2018-12-13T15:08:28.427Z,32.08
2018-12-13T15:10:57.951Z,34.48
2018-12-13T15:13:26.978Z,32.45
2018-12-13T15:15:56.439Z,31.00
2018-12-13T15:18:25.467Z,31.75
2018-12-13T15:20:54.531Z,36.03
2018-12-13T15:23:23.962Z,38.73
2018-12-13T15:25:53.040Z,32.70
2018-12-13T15:28:22.408Z,39.83
2018-12-13T15:30:52.266Z,34.55
2018-12-13T15:33:21.336Z,33.05
2018-12-13T15:35:51.952Z,35.75
2018-12-13T15:38:21.487Z,37.05
2018-12-13T15:40:50.549Z,33.35
2018-12-13T15:43:20.308Z,45.73
2018-12-13T15:45:49.702Z,39.50
2018-12-13T15:48:19.581Z,34.80
2018-12-13T15:50:48.715Z,33.33
2018-12-13T15:53:17.752Z,32.35
2018-12-13T15:55:46.955Z,34.78
2018-12-13T15:58:15.995Z,30.85
2018-12-13T16:00:45.034Z,36.40
2018-12-13T16:03:14.152Z,38.65
2018-12-13T16:05:43.189Z,30.72
2018-12-13T16:08:12.860Z,36.38
2018-12-13T16:10:43.158Z,33.73
2018-12-13T16:13:12.831Z,39.18
2018-12-13T16:15:41.900Z,40.25
2018-12-13T16:18:11.813Z,32.17
2018-12-13T16:23:18.373Z,31.20
2018-12-13T16:25:48.158Z,30.00
2018-12-13T16:28:18.178Z,37.08
2018-12-13T16:30:48.851Z,34.78
2018-12-13T16:33:18.609Z,27.58
2018-12-13T16:35:48.061Z,32.17
2018-12-13T16:38:17.138Z,30.02
2018-12-13T16:40:47.087Z,28.80
2018-12-13T16:43:16.146Z,23.75
2018-12-13T16:45:45.623Z,31.33
2018-12-13T16:48:14.663Z,31.05
2018-12-13T16:50:44.470Z,22.95
2018-12-13T16:53:13.887Z,36.15
2018-12-13T16:55:44.771Z,27.13
2018-12-13T16:58:13.802Z,28.57
2018-12-13T17:00:43.978Z,31.45
2018-12-13T17:03:31.919Z,29.30
2018-12-13T17:06:01.147Z,28.30
2018-12-13T17:08:30.211Z,30.50
2018-12-13T17:10:59.385Z,35.03
2018-12-13T17:13:29.247Z,29.35
2018-12-13T17:15:58.278Z,30.60
2018-12-13T17:18:27.356Z,25.77
2018-12-13T17:20:56.658Z,38.63
2018-12-13T17:23:26.150Z,25.55
2018-12-13T17:25:55.201Z,26.00
2018-12-13T17:28:24.702Z,29.40
2018-12-13T17:30:54.497Z,27.52
2018-12-13T17:33:23.623Z,23.80
2018-12-13T17:35:53.458Z,23.87
2018-12-13T17:38:22.829Z,24.77
2018-12-13T17:40:51.867Z,26.97
2018-12-13T17:43:21.434Z,30.50
2018-12-13T17:45:51.105Z,29.80
2018-12-13T17:48:21.488Z,21.42
2018-12-13T17:50:50.522Z,28.02
2018-12-13T17:53:19.994Z,33.38
2018-12-13T17:55:49.222Z,25.77
2018-12-13T17:58:19.158Z,24.90
2018-12-13T18:00:48.310Z,29.02
2018-12-13T18:03:17.603Z,25.45
2018-12-13T18:05:47.072Z,23.90
2018-12-13T18:08:16.361Z,30.50
2018-12-13T18:10:46.016Z,25.57
2018-12-13T18:13:15.046Z,24.37
2018-12-13T18:15:44.105Z,23.98
2018-12-13T18:18:13.200Z,29.52
2018-12-13T18:20:42.847Z,27.55
2018-12-13T18:23:11.887Z,24.20
2018-12-13T18:25:41.632Z,22.95
2018-12-13T18:28:10.887Z,21.90
2018-12-13T18:30:39.940Z,23.45
2018-12-13T18:33:09.607Z,25.72
2018-12-13T18:35:38.951Z,18.45
2018-12-13T18:38:08.007Z,21.80
2018-12-13T18:40:37.134Z,24.45
2018-12-13T18:43:06.950Z,20.15
2018-12-13T18:45:36.220Z,26.60
2018-12-13T18:48:05.380Z,25.05
2018-12-13T18:50:35.205Z,21.75
2018-12-13T18:53:04.245Z,19.62
2018-12-13T18:55:33.602Z,20.88
2018-12-13T18:58:02.718Z,22.55
2018-12-13T19:00:32.979Z,24.60
2018-12-13T19:03:02.687Z,22.32
2018-12-13T19:05:32.006Z,22.87
2018-12-13T19:08:01.519Z,32.98
2018-12-13T19:10:31.035Z,20.88
2018-12-13T19:13:00.384Z,21.93
2018-12-13T19:15:29.639Z,21.90
2018-12-13T19:17:58.686Z,18.52
2018-12-13T19:20:28.454Z,23.02
2018-12-13T19:22:58.391Z,18.05
2018-12-13T19:25:27.845Z,19.25
2018-12-13T19:27:57.170Z,24.92
2018-12-13T19:30:26.234Z,25.37
2018-12-13T19:32:55.267Z,22.17
2018-12-13T19:35:24.831Z,22.95
2018-12-13T19:37:53.866Z,20.77
2018-12-13T19:40:22.902Z,22.60
2018-12-13T19:42:52.059Z,20.15
2018-12-13T19:45:22.218Z,21.00
2018-12-13T19:47:51.798Z,23.40
2018-12-13T19:50:20.839Z,24.25
2018-12-13T19:52:49.901Z,35.15
2018-12-13T19:55:19.392Z,35.03
2018-12-13T19:57:48.425Z,25.02
2018-12-13T20:00:18.211Z,28.65
2018-12-13T20:02:47.831Z,21.50
2018-12-13T20:05:16.894Z,22.95
2018-12-13T20:07:47.020Z,24.92
2018-12-13T20:10:16.063Z,29.72
2018-12-13T20:12:45.431Z,22.25
2018-12-13T20:15:14.463Z,23.20
2018-12-13T20:17:43.513Z,20.68
2018-12-13T20:20:12.602Z,22.65
2018-12-13T20:22:42.280Z,19.50
2018-12-13T20:25:11.390Z,20.27
2018-12-13T20:27:40.450Z,21.95
2018-12-13T20:30:09.524Z,20.97
2018-12-13T20:32:39.330Z,21.68
2018-12-13T20:35:08.999Z,78.20
2018-12-13T20:37:38.056Z,211.40
2018-12-13T20:40:07.396Z,119.35
2018-12-13T20:42:36.454Z,76.85
2018-12-13T20:45:07.239Z,30.92
2018-12-13T20:47:36.342Z,34.73
2018-12-13T20:50:06.137Z,34.23
2018-12-13T20:52:35.603Z,45.85
2018-12-13T20:55:05.103Z,48.87
2018-12-13T20:57:34.255Z,103.55
2018-12-13T21:00:07.648Z,59.42
2018-12-13T21:02:36.748Z,44.83
2018-12-13T21:05:06.278Z,43.60
2018-12-13T21:07:35.575Z,44.42
2018-12-13T21:10:06.070Z,82.72
2018-12-13T21:12:35.403Z,64.55
2018-12-13T21:15:05.144Z,55.55
2018-12-13T21:17:35.080Z,46.18
2018-12-13T21:20:04.823Z,37.73
2018-12-13T21:22:33.888Z,32.60
2018-12-13T21:25:02.918Z,36.85
2018-12-13T21:27:31.967Z,32.00
2018-12-13T21:30:01.324Z,29.65
2018-12-13T21:32:30.375Z,31.85
2018-12-13T21:34:59.402Z,34.15
2018-12-13T21:37:28.502Z,33.88
2018-12-13T21:39:57.540Z,35.65
2018-12-13T21:42:26.587Z,38.98
2018-12-13T21:44:56.014Z,36.38
2018-12-13T21:47:25.087Z,38.50
2018-12-13T21:49:54.133Z,34.40
2018-12-13T21:52:23.569Z,34.50
2018-12-13T21:54:52.599Z,35.65
2018-12-13T21:57:22.471Z,34.58
2018-12-13T21:59:52.868Z,33.70
2018-12-13T22:02:21.946Z,37.50
2018-12-13T22:04:50.980Z,42.17
2018-12-13T22:07:20.077Z,39.70
2018-12-13T22:09:49.124Z,31.48
2018-12-13T22:12:18.242Z,36.10
2018-12-13T22:14:47.268Z,34.33
2018-12-13T22:17:16.359Z,33.30
2018-12-13T22:19:45.855Z,30.85
2018-12-13T22:22:14.947Z,34.25
2018-12-13T22:24:43.991Z,30.77
2018-12-13T22:27:13.051Z,31.30
2018-12-13T22:29:42.553Z,33.65
2018-12-13T22:32:11.649Z,23.65
2018-12-13T22:34:41.113Z,28.27
2018-12-13T22:37:10.921Z,29.32
2018-12-13T22:39:40.024Z,27.02
2018-12-13T22:42:09.165Z,29.98
2018-12-13T22:44:38.186Z,32.13
2018-12-13T22:47:07.272Z,30.88
2018-12-13T22:49:36.372Z,34.88
2018-12-13T22:52:05.459Z,22.37
2018-12-13T22:54:34.825Z,27.70
2018-12-13T22:57:03.959Z,25.25
2018-12-13T22:59:33.462Z,25.55
2018-12-13T23:02:03.030Z,23.35
2018-12-13T23:04:32.074Z,26.37
2018-12-13T23:07:01.181Z,23.42
2018-12-13T23:09:30.268Z,24.60
2018-12-13T23:12:00.884Z,24.07
2018-12-13T23:14:30.177Z,23.32
2018-12-13T23:16:59.768Z,23.60
2018-12-13T23:19:28.855Z,19.00
2018-12-13T23:21:57.892Z,24.80
2018-12-13T23:24:27.001Z,21.60
2018-12-13T23:26:56.065Z,23.15
2018-12-13T23:29:25.868Z,24.63
2018-12-13T23:31:54.944Z,23.83
2018-12-13T23:34:24.024Z,27.65
2018-12-13T23:36:53.586Z,20.70
2018-12-13T23:39:23.208Z,22.35
2018-12-13T23:41:53.177Z,20.75
2018-12-13T23:44:22.657Z,21.50
2018-12-13T23:46:52.152Z,21.85
2018-12-13T23:49:21.358Z,21.37
2018-12-13T23:51:50.412Z,19.48
2018-12-13T23:54:19.511Z,24.52
2018-12-13T23:56:48.998Z,18.05
2018-12-13T23:59:18.118Z,20.92
